sensor_id;sensor_type;location;lat;lon;timestamp;temperature;humidity
41904;DHT22;27586;51.124;4.182;2023-07-30T00:01:40;16.20;99.90
41904;DHT22;27586;51.124;4.182;2023-07-30T00:04:06;16.20;99.90
41904;DHT22;27586;51.124;4.182;2023-07-30T00:06:31;16.20;99.90
41904;DHT22;27586;51.124;4.182;2023-07-30T00:08:57;16.30;99.90
41904;DHT22;27586;51.124;4.182;2023-07-30T00:11:23;16.30;99.90
41904;DHT22;27586;51.124;4.182;2023-07-30T00:13:48;16.30;99.90
41904;DHT22;27586;51.124;4.182;2023-07-30T00:16:14;16.30;99.90
41904;DHT22;27586;51.124;4.182;2023-07-30T00:18:39;16.30;99.90
41904;DHT22;27586;51.124;4.182;2023-07-30T00:21:05;16.20;99.90
41904;DHT22;27586;51.124;4.182;2023-07-30T00:23:31;16.00;99.90
41904;DHT22;27586;51.124;4.182;2023-07-30T00:25:56;16.00;99.90
41904;DHT22;27586;51.124;4.182;2023-07-30T00:28:22;16.10;99.90
41904;DHT22;27586;51.124;4.182;2023-07-30T00:30:48;16.00;99.90
41904;DHT22;27586;51.124;4.182;2023-07-30T00:33:13;16.00;99.90
41904;DHT22;27586;51.124;4.182;2023-07-30T00:35:39;16.00;99.90
41904;DHT22;27586;51.124;4.182;2023-07-30T00:38:04;16.10;99.90
41904;DHT22;27586;51.124;4.182;2023-07-30T00:40:30;16.10;99.90
41904;DHT22;27586;51.124;4.182;2023-07-30T00:42:56;16.00;99.90
41904;DHT22;27586;51.124;4.182;2023-07-30T00:45:21;16.00;99.90
41904;DHT22;27586;51.124;4.182;2023-07-30T00:47:47;16.10;99.90
41904;DHT22;27586;51.124;4.182;2023-07-30T00:50:14;16.00;99.90
41904;DHT22;27586;51.124;4.182;2023-07-30T00:52:40;15.90;99.90
41904;DHT22;27586;51.124;4.182;2023-07-30T00:55:07;15.90;99.90
41904;DHT22;27586;51.124;4.182;2023-07-30T00:57:37;16.00;99.90
41904;DHT22;27586;51.124;4.182;2023-07-30T01:00:04;16.00;99.90
41904;DHT22;27586;51.124;4.182;2023-07-30T01:02:31;16.00;99.90
41904;DHT22;27586;51.124;4.182;2023-07-30T01:04:57;15.90;99.90
41904;DHT22;27586;51.124;4.182;2023-07-30T01:07:25;16.00;99.90
41904;DHT22;27586;51.124;4.182;2023-07-30T01:09:51;15.90;99.90
41904;DHT22;27586;51.124;4.182;2023-07-30T01:12:17;16.00;99.90
41904;DHT22;27586;51.124;4.182;2023-07-30T01:14:44;15.90;99.90
41904;DHT22;27586;51.124;4.182;2023-07-30T01:17:11;16.00;99.90
41904;DHT22;27586;51.124;4.182;2023-07-30T01:19:37;16.00;99.90
41904;DHT22;27586;51.124;4.182;2023-07-30T01:22:03;16.00;99.90
41904;DHT22;27586;51.124;4.182;2023-07-30T01:24:29;16.00;99.90
41904;DHT22;27586;51.124;4.182;2023-07-30T01:26:55;15.90;99.90
41904;DHT22;27586;51.124;4.182;2023-07-30T01:29:25;16.00;99.90
41904;DHT22;27586;51.124;4.182;2023-07-30T01:31:56;16.10;99.90
41904;DHT22;27586;51.124;4.182;2023-07-30T01:34:24;16.00;99.90
41904;DHT22;27586;51.124;4.182;2023-07-30T01:36:53;16.00;99.90
41904;DHT22;27586;51.124;4.182;2023-07-30T01:39:20;15.90;99.90
41904;DHT22;27586;51.124;4.182;2023-07-30T01:41:46;15.90;99.90
41904;DHT22;27586;51.124;4.182;2023-07-30T01:44:11;15.80;99.90
41904;DHT22;27586;51.124;4.182;2023-07-30T01:46:37;15.80;99.90
41904;DHT22;27586;51.124;4.182;2023-07-30T01:49:03;15.80;99.90
41904;DHT22;27586;51.124;4.182;2023-07-30T01:51:28;15.80;99.90
41904;DHT22;27586;51.124;4.182;2023-07-30T01:53:54;15.80;99.90
41904;DHT22;27586;51.124;4.182;2023-07-30T01:56:20;15.70;99.90
41904;DHT22;27586;51.124;4.182;2023-07-30T01:58:45;15.70;99.90
41904;DHT22;27586;51.124;4.182;2023-07-30T02:01:12;15.70;99.90
41904;DHT22;27586;51.124;4.182;2023-07-30T02:03:37;15.70;99.90
41904;DHT22;27586;51.124;4.182;2023-07-30T02:06:03;15.70;99.90
41904;DHT22;27586;51.124;4.182;2023-07-30T02:08:29;15.60;99.90
41904;DHT22;27586;51.124;4.182;2023-07-30T02:10:58;15.70;99.90
41904;DHT22;27586;51.124;4.182;2023-07-30T02:13:24;15.60;99.90
41904;DHT22;27586;51.124;4.182;2023-07-30T02:15:50;15.70;99.90
41904;DHT22;27586;51.124;4.182;2023-07-30T02:18:16;15.70;99.90
41904;DHT22;27586;51.124;4.182;2023-07-30T02:20:41;15.70;99.90
41904;DHT22;27586;51.124;4.182;2023-07-30T02:23:07;15.70;99.90
41904;DHT22;27586;51.124;4.182;2023-07-30T02:25:33;15.70;99.90
41904;DHT22;27586;51.124;4.182;2023-07-30T02:28:00;15.60;99.90
41904;DHT22;27586;51.124;4.182;2023-07-30T02:30:28;15.60;99.90
41904;DHT22;27586;51.124;4.182;2023-07-30T02:32:54;15.60;99.90
41904;DHT22;27586;51.124;4.182;2023-07-30T02:35:19;15.60;99.90
41904;DHT22;27586;51.124;4.182;2023-07-30T02:37:45;15.60;99.90
41904;DHT22;27586;51.124;4.182;2023-07-30T02:40:11;15.60;99.90
41904;DHT22;27586;51.124;4.182;2023-07-30T02:42:36;15.60;99.90
41904;DHT22;27586;51.124;4.182;2023-07-30T02:45:03;15.60;99.90
41904;DHT22;27586;51.124;4.182;2023-07-30T02:47:29;15.70;99.90
41904;DHT22;27586;51.124;4.182;2023-07-30T02:49:55;15.70;99.90
41904;DHT22;27586;51.124;4.182;2023-07-30T02:52:20;15.70;99.90
41904;DHT22;27586;51.124;4.182;2023-07-30T02:54:46;15.70;99.90
41904;DHT22;27586;51.124;4.182;2023-07-30T02:57:12;15.80;99.90
41904;DHT22;27586;51.124;4.182;2023-07-30T02:59:38;15.80;99.90
41904;DHT22;27586;51.124;4.182;2023-07-30T03:02:04;15.80;99.90
41904;DHT22;27586;51.124;4.182;2023-07-30T03:04:33;15.80;99.90
41904;DHT22;27586;51.124;4.182;2023-07-30T03:06:59;15.80;99.90
41904;DHT22;27586;51.124;4.182;2023-07-30T03:09:25;15.90;99.90
41904;DHT22;27586;51.124;4.182;2023-07-30T03:11:50;15.90;99.90
41904;DHT22;27586;51.124;4.182;2023-07-30T03:14:16;15.70;99.90
41904;DHT22;27586;51.124;4.182;2023-07-30T03:16:46;15.70;99.90
41904;DHT22;27586;51.124;4.182;2023-07-30T03:19:12;15.70;99.90
41904;DHT22;27586;51.124;4.182;2023-07-30T03:21:37;15.70;99.90
41904;DHT22;27586;51.124;4.182;2023-07-30T03:24:03;15.80;99.90
41904;DHT22;27586;51.124;4.182;2023-07-30T03:26:29;15.80;99.90
41904;DHT22;27586;51.124;4.182;2023-07-30T03:28:54;15.90;99.90
41904;DHT22;27586;51.124;4.182;2023-07-30T03:31:20;15.90;99.90
41904;DHT22;27586;51.124;4.182;2023-07-30T03:33:46;16.00;99.90
41904;DHT22;27586;51.124;4.182;2023-07-30T03:36:12;16.00;99.90
41904;DHT22;27586;51.124;4.182;2023-07-30T03:38:41;16.00;99.90
41904;DHT22;27586;51.124;4.182;2023-07-30T03:41:11;16.10;99.90
41904;DHT22;27586;51.124;4.182;2023-07-30T03:43:37;16.10;99.90
41904;DHT22;27586;51.124;4.182;2023-07-30T03:46:03;16.00;99.90
41904;DHT22;27586;51.124;4.182;2023-07-30T03:48:28;16.10;99.90
41904;DHT22;27586;51.124;4.182;2023-07-30T03:50:54;16.10;99.90
41904;DHT22;27586;51.124;4.182;2023-07-30T03:53:20;16.10;99.90
41904;DHT22;27586;51.124;4.182;2023-07-30T03:55:46;16.00;99.90
41904;DHT22;27586;51.124;4.182;2023-07-30T03:58:12;16.00;99.90
41904;DHT22;27586;51.124;4.182;2023-07-30T04:00:38;16.00;99.90
41904;DHT22;27586;51.124;4.182;2023-07-30T04:03:04;16.00;99.90
41904;DHT22;27586;51.124;4.182;2023-07-30T04:05:30;16.00;99.90
41904;DHT22;27586;51.124;4.182;2023-07-30T04:07:56;15.90;99.90
41904;DHT22;27586;51.124;4.182;2023-07-30T04:10:22;15.90;99.90
41904;DHT22;27586;51.124;4.182;2023-07-30T04:12:47;15.90;99.90
41904;DHT22;27586;51.124;4.182;2023-07-30T04:15:14;15.90;99.90
41904;DHT22;27586;51.124;4.182;2023-07-30T04:17:40;15.90;99.90
41904;DHT22;27586;51.124;4.182;2023-07-30T04:20:06;15.90;99.90
41904;DHT22;27586;51.124;4.182;2023-07-30T04:22:32;15.90;99.90
41904;DHT22;27586;51.124;4.182;2023-07-30T04:24:58;15.90;99.90
41904;DHT22;27586;51.124;4.182;2023-07-30T04:27:23;15.90;99.90
41904;DHT22;27586;51.124;4.182;2023-07-30T04:29:49;15.90;99.90
41904;DHT22;27586;51.124;4.182;2023-07-30T04:32:14;15.90;99.90
41904;DHT22;27586;51.124;4.182;2023-07-30T04:34:40;16.00;99.90
41904;DHT22;27586;51.124;4.182;2023-07-30T04:37:06;15.90;99.90
41904;DHT22;27586;51.124;4.182;2023-07-30T04:39:35;15.90;99.90
41904;DHT22;27586;51.124;4.182;2023-07-30T04:42:01;15.80;99.90
41904;DHT22;27586;51.124;4.182;2023-07-30T04:44:26;15.80;99.90
41904;DHT22;27586;51.124;4.182;2023-07-30T04:46:52;15.90;99.90
41904;DHT22;27586;51.124;4.182;2023-07-30T04:49:18;15.90;99.90
41904;DHT22;27586;51.124;4.182;2023-07-30T04:51:43;15.90;99.90
41904;DHT22;27586;51.124;4.182;2023-07-30T04:54:09;15.90;99.90
41904;DHT22;27586;51.124;4.182;2023-07-30T04:56:34;16.00;99.90
41904;DHT22;27586;51.124;4.182;2023-07-30T04:59:01;15.90;99.90
41904;DHT22;27586;51.124;4.182;2023-07-30T05:01:27;15.90;99.90
41904;DHT22;27586;51.124;4.182;2023-07-30T05:03:53;15.90;99.90
41904;DHT22;27586;51.124;4.182;2023-07-30T05:06:18;16.00;99.90
41904;DHT22;27586;51.124;4.182;2023-07-30T05:08:44;15.90;99.90
41904;DHT22;27586;51.124;4.182;2023-07-30T05:11:10;15.90;99.90
41904;DHT22;27586;51.124;4.182;2023-07-30T05:13:36;16.00;99.90
41904;DHT22;27586;51.124;4.182;2023-07-30T05:16:01;16.00;99.90
41904;DHT22;27586;51.124;4.182;2023-07-30T05:18:27;16.00;99.90
41904;DHT22;27586;51.124;4.182;2023-07-30T05:20:53;16.10;99.90
41904;DHT22;27586;51.124;4.182;2023-07-30T05:23:19;16.10;99.90
41904;DHT22;27586;51.124;4.182;2023-07-30T05:25:45;16.10;99.90
41904;DHT22;27586;51.124;4.182;2023-07-30T05:28:11;16.20;99.90
41904;DHT22;27586;51.124;4.182;2023-07-30T05:30:37;16.20;99.90
41904;DHT22;27586;51.124;4.182;2023-07-30T05:33:02;16.20;99.90
41904;DHT22;27586;51.124;4.182;2023-07-30T05:35:28;16.20;99.90
41904;DHT22;27586;51.124;4.182;2023-07-30T05:37:54;16.20;99.90
41904;DHT22;27586;51.124;4.182;2023-07-30T05:40:20;16.30;99.90
41904;DHT22;27586;51.124;4.182;2023-07-30T05:42:45;16.30;99.90
41904;DHT22;27586;51.124;4.182;2023-07-30T05:45:12;16.30;99.90
41904;DHT22;27586;51.124;4.182;2023-07-30T05:47:37;16.30;99.90
41904;DHT22;27586;51.124;4.182;2023-07-30T05:50:03;16.30;99.90
41904;DHT22;27586;51.124;4.182;2023-07-30T05:52:29;16.40;99.90
41904;DHT22;27586;51.124;4.182;2023-07-30T05:54:55;16.40;99.90
41904;DHT22;27586;51.124;4.182;2023-07-30T05:57:20;16.50;99.90
41904;DHT22;27586;51.124;4.182;2023-07-30T05:59:46;16.40;99.90
41904;DHT22;27586;51.124;4.182;2023-07-30T06:02:12;16.50;99.90
41904;DHT22;27586;51.124;4.182;2023-07-30T06:04:38;16.40;99.90
41904;DHT22;27586;51.124;4.182;2023-07-30T06:07:04;16.50;99.90
41904;DHT22;27586;51.124;4.182;2023-07-30T06:09:29;16.50;99.90
41904;DHT22;27586;51.124;4.182;2023-07-30T06:11:57;16.60;99.90
41904;DHT22;27586;51.124;4.182;2023-07-30T06:14:26;16.70;99.90
41904;DHT22;27586;51.124;4.182;2023-07-30T06:16:52;16.90;99.90
41904;DHT22;27586;51.124;4.182;2023-07-30T06:19:19;16.80;99.90
41904;DHT22;27586;51.124;4.182;2023-07-30T06:21:44;16.80;99.90
41904;DHT22;27586;51.124;4.182;2023-07-30T06:24:10;16.80;99.90
41904;DHT22;27586;51.124;4.182;2023-07-30T06:26:36;16.80;99.90
41904;DHT22;27586;51.124;4.182;2023-07-30T06:29:01;16.80;99.90
41904;DHT22;27586;51.124;4.182;2023-07-30T06:31:27;16.80;99.90
41904;DHT22;27586;51.124;4.182;2023-07-30T06:33:53;16.70;99.90
41904;DHT22;27586;51.124;4.182;2023-07-30T06:36:19;16.70;99.90
41904;DHT22;27586;51.124;4.182;2023-07-30T06:38:44;16.80;99.90
41904;DHT22;27586;51.124;4.182;2023-07-30T06:41:10;16.90;99.90
41904;DHT22;27586;51.124;4.182;2023-07-30T06:43:36;16.90;99.90
41904;DHT22;27586;51.124;4.182;2023-07-30T06:46:01;17.10;99.90
41904;DHT22;27586;51.124;4.182;2023-07-30T06:48:27;17.20;99.90
41904;DHT22;27586;51.124;4.182;2023-07-30T06:50:53;17.50;99.90
41904;DHT22;27586;51.124;4.182;2023-07-30T06:53:18;17.70;99.90
41904;DHT22;27586;51.124;4.182;2023-07-30T06:55:47;17.80;99.90
41904;DHT22;27586;51.124;4.182;2023-07-30T06:58:13;17.80;99.90
41904;DHT22;27586;51.124;4.182;2023-07-30T07:00:39;17.80;99.90
41904;DHT22;27586;51.124;4.182;2023-07-30T07:03:05;17.70;99.90
41904;DHT22;27586;51.124;4.182;2023-07-30T07:05:31;17.80;99.90
41904;DHT22;27586;51.124;4.182;2023-07-30T07:07:56;18.00;99.90
41904;DHT22;27586;51.124;4.182;2023-07-30T07:10:22;18.00;99.90
41904;DHT22;27586;51.124;4.182;2023-07-30T07:12:47;17.90;99.90
41904;DHT22;27586;51.124;4.182;2023-07-30T07:15:13;17.80;99.90
41904;DHT22;27586;51.124;4.182;2023-07-30T07:17:39;17.90;99.90
41904;DHT22;27586;51.124;4.182;2023-07-30T07:20:06;17.80;99.90
41904;DHT22;27586;51.124;4.182;2023-07-30T07:22:33;18.10;99.90
41904;DHT22;27586;51.124;4.182;2023-07-30T07:24:58;18.30;99.90
41904;DHT22;27586;51.124;4.182;2023-07-30T07:27:25;18.50;99.90
41904;DHT22;27586;51.124;4.182;2023-07-30T07:29:51;18.60;99.90
41904;DHT22;27586;51.124;4.182;2023-07-30T07:32:18;18.90;99.90
41904;DHT22;27586;51.124;4.182;2023-07-30T07:34:47;19.00;99.90
41904;DHT22;27586;51.124;4.182;2023-07-30T07:37:14;19.00;99.90
41904;DHT22;27586;51.124;4.182;2023-07-30T07:39:41;18.90;99.90
41904;DHT22;27586;51.124;4.182;2023-07-30T07:42:07;18.90;99.90
41904;DHT22;27586;51.124;4.182;2023-07-30T07:44:33;18.90;99.90
41904;DHT22;27586;51.124;4.182;2023-07-30T07:46:58;18.70;99.90
41904;DHT22;27586;51.124;4.182;2023-07-30T07:49:24;18.50;99.90
41904;DHT22;27586;51.124;4.182;2023-07-30T07:51:49;18.50;99.90
41904;DHT22;27586;51.124;4.182;2023-07-30T07:54:15;18.50;99.90
41904;DHT22;27586;51.124;4.182;2023-07-30T07:56:41;18.60;99.90
41904;DHT22;27586;51.124;4.182;2023-07-30T07:59:06;18.60;99.90
41904;DHT22;27586;51.124;4.182;2023-07-30T08:01:35;18.70;99.90
41904;DHT22;27586;51.124;4.182;2023-07-30T08:04:02;18.80;99.90
41904;DHT22;27586;51.124;4.182;2023-07-30T08:06:28;18.90;99.90
41904;DHT22;27586;51.124;4.182;2023-07-30T08:08:53;18.90;99.90
41904;DHT22;27586;51.124;4.182;2023-07-30T08:11:19;19.00;99.90
41904;DHT22;27586;51.124;4.182;2023-07-30T08:13:45;19.00;99.90
41904;DHT22;27586;51.124;4.182;2023-07-30T08:16:11;19.10;99.90
41904;DHT22;27586;51.124;4.182;2023-07-30T08:18:37;19.10;99.90
41904;DHT22;27586;51.124;4.182;2023-07-30T08:21:02;19.00;99.90
41904;DHT22;27586;51.124;4.182;2023-07-30T08:23:28;19.00;99.90
41904;DHT22;27586;51.124;4.182;2023-07-30T08:25:54;18.90;99.90
41904;DHT22;27586;51.124;4.182;2023-07-30T08:28:19;19.10;99.90
41904;DHT22;27586;51.124;4.182;2023-07-30T08:30:45;19.10;99.90
41904;DHT22;27586;51.124;4.182;2023-07-30T08:33:11;19.00;99.90
41904;DHT22;27586;51.124;4.182;2023-07-30T08:35:37;19.00;99.90
41904;DHT22;27586;51.124;4.182;2023-07-30T08:38:02;19.00;99.90
41904;DHT22;27586;51.124;4.182;2023-07-30T08:40:28;19.10;99.90
41904;DHT22;27586;51.124;4.182;2023-07-30T08:42:54;19.20;99.90
41904;DHT22;27586;51.124;4.182;2023-07-30T08:45:20;19.30;99.90
41904;DHT22;27586;51.124;4.182;2023-07-30T08:47:46;19.30;99.90
41904;DHT22;27586;51.124;4.182;2023-07-30T08:50:12;19.40;99.90
41904;DHT22;27586;51.124;4.182;2023-07-30T08:52:39;19.50;99.90
41904;DHT22;27586;51.124;4.182;2023-07-30T08:55:05;19.50;99.90
41904;DHT22;27586;51.124;4.182;2023-07-30T08:57:32;19.60;99.90
41904;DHT22;27586;51.124;4.182;2023-07-30T09:00:06;19.80;99.90
41904;DHT22;27586;51.124;4.182;2023-07-30T09:02:46;19.90;99.90
41904;DHT22;27586;51.124;4.182;2023-07-30T09:05:13;20.10;99.90
41904;DHT22;27586;51.124;4.182;2023-07-30T09:07:38;20.00;99.90
41904;DHT22;27586;51.124;4.182;2023-07-30T09:10:05;20.10;99.90
41904;DHT22;27586;51.124;4.182;2023-07-30T09:12:32;20.00;99.90
41904;DHT22;27586;51.124;4.182;2023-07-30T09:14:59;20.00;99.90
41904;DHT22;27586;51.124;4.182;2023-07-30T09:17:24;20.10;99.90
41904;DHT22;27586;51.124;4.182;2023-07-30T09:19:51;20.10;99.90
41904;DHT22;27586;51.124;4.182;2023-07-30T09:22:35;20.20;99.90
41904;DHT22;27586;51.124;4.182;2023-07-30T09:25:06;20.20;99.90
41904;DHT22;27586;51.124;4.182;2023-07-30T09:27:32;20.20;99.90
41904;DHT22;27586;51.124;4.182;2023-07-30T09:30:00;20.30;99.90
41904;DHT22;27586;51.124;4.182;2023-07-30T09:32:27;20.50;99.90
41904;DHT22;27586;51.124;4.182;2023-07-30T09:34:53;20.50;99.90
41904;DHT22;27586;51.124;4.182;2023-07-30T09:37:19;20.60;99.90
41904;DHT22;27586;51.124;4.182;2023-07-30T09:39:47;20.70;99.90
41904;DHT22;27586;51.124;4.182;2023-07-30T09:42:13;20.90;99.90
41904;DHT22;27586;51.124;4.182;2023-07-30T09:44:39;21.10;99.90
41904;DHT22;27586;51.124;4.182;2023-07-30T09:47:08;21.00;99.90
41904;DHT22;27586;51.124;4.182;2023-07-30T09:49:38;21.10;99.90
41904;DHT22;27586;51.124;4.182;2023-07-30T09:52:04;21.20;99.90
41904;DHT22;27586;51.124;4.182;2023-07-30T09:54:31;21.50;99.90
41904;DHT22;27586;51.124;4.182;2023-07-30T09:56:57;21.80;99.90
41904;DHT22;27586;51.124;4.182;2023-07-30T09:59:23;21.90;99.90
41904;DHT22;27586;51.124;4.182;2023-07-30T10:01:49;21.90;99.90
41904;DHT22;27586;51.124;4.182;2023-07-30T10:04:18;22.20;99.90
41904;DHT22;27586;51.124;4.182;2023-07-30T10:07:06;22.20;99.90
41904;DHT22;27586;51.124;4.182;2023-07-30T10:09:40;22.30;99.90
41904;DHT22;27586;51.124;4.182;2023-07-30T10:12:15;22.50;99.90
41904;DHT22;27586;51.124;4.182;2023-07-30T10:14:42;22.60;99.90
41904;DHT22;27586;51.124;4.182;2023-07-30T10:17:10;22.60;99.90
41904;DHT22;27586;51.124;4.182;2023-07-30T10:19:36;22.30;99.90
41904;DHT22;27586;51.124;4.182;2023-07-30T10:27:24;22.30;99.90
41904;DHT22;27586;51.124;4.182;2023-07-30T10:30:13;22.40;99.90
41904;DHT22;27586;51.124;4.182;2023-07-30T10:35:05;22.40;99.90
41904;DHT22;27586;51.124;4.182;2023-07-30T10:37:31;22.40;99.90
41904;DHT22;27586;51.124;4.182;2023-07-30T10:39:57;22.10;99.90
41904;DHT22;27586;51.124;4.182;2023-07-30T10:42:22;21.70;99.90
41904;DHT22;27586;51.124;4.182;2023-07-30T10:44:49;21.40;99.90
41904;DHT22;27586;51.124;4.182;2023-07-30T10:47:15;21.10;99.90
41904;DHT22;27586;51.124;4.182;2023-07-30T10:49:41;21.00;99.90
41904;DHT22;27586;51.124;4.182;2023-07-30T10:52:10;20.90;99.90
41904;DHT22;27586;51.124;4.182;2023-07-30T10:54:36;21.20;99.90
41904;DHT22;27586;51.124;4.182;2023-07-30T10:57:03;21.70;99.90
41904;DHT22;27586;51.124;4.182;2023-07-30T10:59:36;22.00;99.90
41904;DHT22;27586;51.124;4.182;2023-07-30T11:02:02;22.00;99.90
41904;DHT22;27586;51.124;4.182;2023-07-30T11:04:28;22.20;99.90
41904;DHT22;27586;51.124;4.182;2023-07-30T11:06:54;22.30;99.90
41904;DHT22;27586;51.124;4.182;2023-07-30T11:09:21;22.50;99.90
41904;DHT22;27586;51.124;4.182;2023-07-30T11:11:47;22.60;99.90
41904;DHT22;27586;51.124;4.182;2023-07-30T11:14:20;22.90;99.90
41904;DHT22;27586;51.124;4.182;2023-07-30T11:16:51;23.00;99.90
41904;DHT22;27586;51.124;4.182;2023-07-30T11:19:17;22.60;99.90
41904;DHT22;27586;51.124;4.182;2023-07-30T11:21:51;22.30;99.90
41904;DHT22;27586;51.124;4.182;2023-07-30T11:24:17;21.80;99.90
41904;DHT22;27586;51.124;4.182;2023-07-30T11:26:46;21.60;99.90
41904;DHT22;27586;51.124;4.182;2023-07-30T11:29:21;21.60;99.90
41904;DHT22;27586;51.124;4.182;2023-07-30T11:31:47;21.90;99.90
41904;DHT22;27586;51.124;4.182;2023-07-30T11:34:13;21.90;99.90
41904;DHT22;27586;51.124;4.182;2023-07-30T11:36:41;21.80;99.90
41904;DHT22;27586;51.124;4.182;2023-07-30T11:39:08;22.00;99.90
41904;DHT22;27586;51.124;4.182;2023-07-30T11:41:34;22.00;99.90
41904;DHT22;27586;51.124;4.182;2023-07-30T11:44:00;21.90;99.90
41904;DHT22;27586;51.124;4.182;2023-07-30T11:46:25;22.10;99.90
41904;DHT22;27586;51.124;4.182;2023-07-30T11:48:53;22.50;99.90
41904;DHT22;27586;51.124;4.182;2023-07-30T11:51:35;22.70;99.90
41904;DHT22;27586;51.124;4.182;2023-07-30T11:54:01;22.50;99.90
41904;DHT22;27586;51.124;4.182;2023-07-30T11:56:29;22.50;99.90
41904;DHT22;27586;51.124;4.182;2023-07-30T11:59:04;22.40;99.90
41904;DHT22;27586;51.124;4.182;2023-07-30T12:01:31;22.60;99.90
41904;DHT22;27586;51.124;4.182;2023-07-30T12:04:00;22.70;99.90
41904;DHT22;27586;51.124;4.182;2023-07-30T12:06:47;22.50;99.90
41904;DHT22;27586;51.124;4.182;2023-07-30T12:09:17;22.60;99.90
41904;DHT22;27586;51.124;4.182;2023-07-30T12:11:51;22.50;99.90
41904;DHT22;27586;51.124;4.182;2023-07-30T12:14:18;22.10;99.90
41904;DHT22;27586;51.124;4.182;2023-07-30T12:16:44;21.90;99.90
41904;DHT22;27586;51.124;4.182;2023-07-30T12:19:10;21.90;99.90
41904;DHT22;27586;51.124;4.182;2023-07-30T12:21:35;22.10;99.90
41904;DHT22;27586;51.124;4.182;2023-07-30T12:24:01;21.90;99.90
41904;DHT22;27586;51.124;4.182;2023-07-30T12:26:29;22.10;99.90
41904;DHT22;27586;51.124;4.182;2023-07-30T12:28:54;22.20;99.90
41904;DHT22;27586;51.124;4.182;2023-07-30T12:31:20;22.30;99.90
41904;DHT22;27586;51.124;4.182;2023-07-30T12:33:46;22.30;99.90
41904;DHT22;27586;51.124;4.182;2023-07-30T12:36:12;22.10;99.90
41904;DHT22;27586;51.124;4.182;2023-07-30T12:38:37;22.00;99.90
41904;DHT22;27586;51.124;4.182;2023-07-30T12:41:03;21.80;99.90
41904;DHT22;27586;51.124;4.182;2023-07-30T12:43:28;22.10;99.90
41904;DHT22;27586;51.124;4.182;2023-07-30T12:45:54;22.20;99.90
41904;DHT22;27586;51.124;4.182;2023-07-30T12:48:20;22.00;99.90
41904;DHT22;27586;51.124;4.182;2023-07-30T12:50:45;22.30;99.90
41904;DHT22;27586;51.124;4.182;2023-07-30T12:53:11;22.40;99.90
41904;DHT22;27586;51.124;4.182;2023-07-30T12:55:37;22.10;99.90
41904;DHT22;27586;51.124;4.182;2023-07-30T12:58:04;22.00;99.90
41904;DHT22;27586;51.124;4.182;2023-07-30T13:00:29;22.10;99.90
41904;DHT22;27586;51.124;4.182;2023-07-30T13:02:55;22.20;99.90
41904;DHT22;27586;51.124;4.182;2023-07-30T13:05:22;22.30;99.90
41904;DHT22;27586;51.124;4.182;2023-07-30T13:07:48;22.40;99.90
41904;DHT22;27586;51.124;4.182;2023-07-30T13:10:14;22.30;99.90
41904;DHT22;27586;51.124;4.182;2023-07-30T13:12:42;22.30;99.90
41904;DHT22;27586;51.124;4.182;2023-07-30T13:15:08;22.30;99.90
41904;DHT22;27586;51.124;4.182;2023-07-30T13:17:34;22.40;99.90
41904;DHT22;27586;51.124;4.182;2023-07-30T13:20:00;22.60;99.90
41904;DHT22;27586;51.124;4.182;2023-07-30T13:22:26;22.40;99.90
41904;DHT22;27586;51.124;4.182;2023-07-30T13:24:51;22.50;99.90
41904;DHT22;27586;51.124;4.182;2023-07-30T13:27:18;22.50;99.90
41904;DHT22;27586;51.124;4.182;2023-07-30T13:29:44;22.80;99.90
41904;DHT22;27586;51.124;4.182;2023-07-30T13:32:10;22.90;99.90
41904;DHT22;27586;51.124;4.182;2023-07-30T13:34:35;22.80;99.90
41904;DHT22;27586;51.124;4.182;2023-07-30T13:37:01;22.60;99.90
41904;DHT22;27586;51.124;4.182;2023-07-30T13:39:27;22.40;99.90
41904;DHT22;27586;51.124;4.182;2023-07-30T13:41:53;22.60;99.90
41904;DHT22;27586;51.124;4.182;2023-07-30T13:44:19;22.70;99.90
41904;DHT22;27586;51.124;4.182;2023-07-30T13:46:45;22.80;99.90
41904;DHT22;27586;51.124;4.182;2023-07-30T13:49:11;23.00;99.90
41904;DHT22;27586;51.124;4.182;2023-07-30T13:51:36;22.90;99.90
41904;DHT22;27586;51.124;4.182;2023-07-30T13:54:02;23.10;99.90
41904;DHT22;27586;51.124;4.182;2023-07-30T13:56:28;23.20;99.90
41904;DHT22;27586;51.124;4.182;2023-07-30T13:58:54;23.10;99.90
41904;DHT22;27586;51.124;4.182;2023-07-30T14:01:20;23.30;99.90
41904;DHT22;27586;51.124;4.182;2023-07-30T14:03:46;23.00;99.90
41904;DHT22;27586;51.124;4.182;2023-07-30T14:06:12;22.80;99.90
41904;DHT22;27586;51.124;4.182;2023-07-30T14:08:37;22.70;99.90
41904;DHT22;27586;51.124;4.182;2023-07-30T14:11:03;22.60;99.90
41904;DHT22;27586;51.124;4.182;2023-07-30T14:13:28;22.30;99.90
41904;DHT22;27586;51.124;4.182;2023-07-30T14:15:54;22.40;99.90
41904;DHT22;27586;51.124;4.182;2023-07-30T14:18:21;22.40;99.90
41904;DHT22;27586;51.124;4.182;2023-07-30T14:20:46;22.30;99.90
41904;DHT22;27586;51.124;4.182;2023-07-30T14:23:13;22.10;99.90
41904;DHT22;27586;51.124;4.182;2023-07-30T14:25:40;22.20;99.90
41904;DHT22;27586;51.124;4.182;2023-07-30T14:28:05;22.10;99.90
41904;DHT22;27586;51.124;4.182;2023-07-30T14:30:31;21.90;99.90
41904;DHT22;27586;51.124;4.182;2023-07-30T14:32:57;22.00;99.90
41904;DHT22;27586;51.124;4.182;2023-07-30T14:35:22;21.90;99.90
41904;DHT22;27586;51.124;4.182;2023-07-30T14:37:48;21.90;99.90
41904;DHT22;27586;51.124;4.182;2023-07-30T14:40:14;21.90;99.90
41904;DHT22;27586;51.124;4.182;2023-07-30T14:42:40;22.00;99.90
41904;DHT22;27586;51.124;4.182;2023-07-30T14:45:07;22.00;99.90
41904;DHT22;27586;51.124;4.182;2023-07-30T14:47:32;21.80;99.90
41904;DHT22;27586;51.124;4.182;2023-07-30T14:49:58;21.70;99.90
41904;DHT22;27586;51.124;4.182;2023-07-30T14:52:24;21.70;99.90
41904;DHT22;27586;51.124;4.182;2023-07-30T14:54:50;21.60;99.90
41904;DHT22;27586;51.124;4.182;2023-07-30T14:57:16;21.50;99.90
41904;DHT22;27586;51.124;4.182;2023-07-30T14:59:42;21.40;99.90
41904;DHT22;27586;51.124;4.182;2023-07-30T15:02:08;21.30;99.90
41904;DHT22;27586;51.124;4.182;2023-07-30T15:04:34;21.10;99.90
41904;DHT22;27586;51.124;4.182;2023-07-30T15:06:59;20.90;99.90
41904;DHT22;27586;51.124;4.182;2023-07-30T15:09:25;20.80;99.90
41904;DHT22;27586;51.124;4.182;2023-07-30T15:11:51;20.80;99.90
41904;DHT22;27586;51.124;4.182;2023-07-30T15:14:16;20.70;99.90
41904;DHT22;27586;51.124;4.182;2023-07-30T15:16:42;20.70;99.90
41904;DHT22;27586;51.124;4.182;2023-07-30T15:19:08;20.50;99.90
41904;DHT22;27586;51.124;4.182;2023-07-30T15:21:33;20.20;99.90
41904;DHT22;27586;51.124;4.182;2023-07-30T15:24:02;20.00;99.90
41904;DHT22;27586;51.124;4.182;2023-07-30T15:26:28;19.90;99.90
41904;DHT22;27586;51.124;4.182;2023-07-30T15:28:53;19.80;99.90
41904;DHT22;27586;51.124;4.182;2023-07-30T15:31:19;19.70;99.90
41904;DHT22;27586;51.124;4.182;2023-07-30T15:33:44;19.50;99.90